createdAt,value
2018-04-22T00:02:23.571Z,16.88
2018-04-22T00:05:46.510Z,16.54
2018-04-22T00:09:10.125Z,16.72
2018-04-22T00:12:32.976Z,16.36
2018-04-22T00:15:55.825Z,16.77
2018-04-22T00:19:18.726Z,16.60
2018-04-22T00:22:41.585Z,16.58
2018-04-22T00:26:04.456Z,16.83
2018-04-22T00:29:27.282Z,16.86
2018-04-22T00:32:50.140Z,16.46
2018-04-22T00:36:13.014Z,16.62
2018-04-22T00:39:36.647Z,16.83
2018-04-22T00:42:59.551Z,16.66
2018-04-22T00:46:22.409Z,16.42
2018-04-22T00:49:45.320Z,16.36
2018-04-22T00:53:08.173Z,16.58
2018-04-22T00:56:31.056Z,16.42
2018-04-22T00:59:54.656Z,16.57
2018-04-22T01:03:17.514Z,16.11
2018-04-22T01:06:40.352Z,16.08
2018-04-22T01:10:03.222Z,16.08
2018-04-22T01:13:26.072Z,16.55
2018-04-22T01:16:49.008Z,16.06
2018-04-22T01:20:12.630Z,15.78
2018-04-22T01:23:35.469Z,16.07
2018-04-22T01:26:58.355Z,15.97
2018-04-22T01:30:21.982Z,16.25
2018-04-22T01:33:44.827Z,15.98
2018-04-22T01:37:07.683Z,15.96
2018-04-22T01:40:30.600Z,16.02
2018-04-22T01:43:53.514Z,16.18
2018-04-22T01:47:16.366Z,15.92
2018-04-22T01:50:39.228Z,15.53
2018-04-22T01:54:02.172Z,15.78
2018-04-22T01:57:25.777Z,15.59
2018-04-22T02:00:48.621Z,15.76
2018-04-22T02:04:11.498Z,15.81
2018-04-22T02:07:35.158Z,15.73
2018-04-22T02:10:58.766Z,15.35
2018-04-22T02:14:21.622Z,15.07
2018-04-22T02:17:44.455Z,15.51
2018-04-22T02:21:07.301Z,15.97
2018-04-22T02:24:30.165Z,15.59
2018-04-22T02:27:53.010Z,15.59
2018-04-22T02:31:15.877Z,15.33
2018-04-22T02:34:38.788Z,15.51
2018-04-22T02:38:01.635Z,15.25
2018-04-22T02:41:24.466Z,14.99
2018-04-22T02:44:47.331Z,15.47
2018-04-22T02:48:10.167Z,15.57
2018-04-22T02:51:33.022Z,15.25
2018-04-22T02:54:55.866Z,15.38
2018-04-22T02:58:18.727Z,15.27
2018-04-22T03:01:41.657Z,15.08
2018-04-22T03:05:05.301Z,15.38
2018-04-22T03:08:28.920Z,14.87
2018-04-22T03:11:51.847Z,14.50
2018-04-22T03:15:14.697Z,14.57
2018-04-22T03:18:37.541Z,14.97
2018-04-22T03:22:00.380Z,15.15
2018-04-22T03:25:23.261Z,14.31
2018-04-22T03:28:46.890Z,14.74
2018-04-22T03:32:09.752Z,15.13
2018-04-22T03:35:32.677Z,14.39
2018-04-22T03:38:55.584Z,14.33
2018-04-22T03:42:18.425Z,15.00
2018-04-22T03:45:41.275Z,14.89
2018-04-22T03:49:04.125Z,15.11
2018-04-22T03:52:26.982Z,14.47
2018-04-22T03:55:49.828Z,13.83
2018-04-22T03:59:12.673Z,14.61
2018-04-22T04:02:35.510Z,14.83
2018-04-22T04:05:58.362Z,14.88
2018-04-22T04:09:21.200Z,14.89
2018-04-22T04:12:44.087Z,14.79
2018-04-22T04:16:08.719Z,14.70
2018-04-22T04:19:43.288Z,14.70
2018-04-22T04:23:06.250Z,14.34
2018-04-22T04:30:27.768Z,14.35
2018-04-22T04:33:50.674Z,14.42
2018-04-22T04:37:13.582Z,14.44
2018-04-22T04:40:36.429Z,14.40
2018-04-22T04:43:59.276Z,14.31
2018-04-22T04:47:22.116Z,14.63
2018-04-22T04:50:45.014Z,14.30
2018-04-22T04:54:08.622Z,14.41
2018-04-22T04:57:31.500Z,14.87
2018-04-22T05:00:55.126Z,14.64
2018-04-22T05:04:18.084Z,14.57
2018-04-22T05:07:40.953Z,14.49
2018-04-22T05:11:03.839Z,14.42
2018-04-22T05:14:27.474Z,14.50
2018-04-22T05:17:50.364Z,14.57
2018-04-22T05:21:22.014Z,14.86
2018-04-22T05:24:44.879Z,14.82
2018-04-22T05:28:07.908Z,14.93
2018-04-22T05:31:30.794Z,14.67
2018-04-22T05:34:53.838Z,14.85
2018-04-22T05:38:17.715Z,14.85
2018-04-22T05:41:40.625Z,15.10
2018-04-22T05:45:03.532Z,15.26
2018-04-22T05:48:26.485Z,15.79
2018-04-22T05:51:49.339Z,15.50
2018-04-22T05:55:12.248Z,15.75
2018-04-22T05:58:35.118Z,15.76
2018-04-22T06:01:58.023Z,15.92
2018-04-22T06:05:20.860Z,15.98
2018-04-22T06:08:43.737Z,16.05
2018-04-22T06:12:06.638Z,16.08
2018-04-22T06:15:29.486Z,16.53
2018-04-22T06:18:53.212Z,16.27
2018-04-22T06:22:16.120Z,16.30
2018-04-22T06:25:39.042Z,16.50
2018-04-22T06:29:01.994Z,16.72
2018-04-22T06:32:25.699Z,16.65
2018-04-22T06:35:48.598Z,16.90
2018-04-22T06:39:11.447Z,17.10
2018-04-22T06:42:34.297Z,17.14
2018-04-22T06:45:58.162Z,17.36
2018-04-22T06:49:21.006Z,17.73
2018-04-22T06:52:43.937Z,17.95
2018-04-22T06:56:06.844Z,17.88
2018-04-22T06:59:29.735Z,18.11
2018-04-22T07:02:53.400Z,18.33
2018-04-22T07:06:16.285Z,18.49
2018-04-22T07:09:39.204Z,18.62
2018-04-22T07:13:02.103Z,18.82
2018-04-22T07:16:24.957Z,18.93
2018-04-22T07:19:48.833Z,19.06
2018-04-22T07:23:11.673Z,19.13
2018-04-22T07:26:34.527Z,19.33
2018-04-22T07:29:57.453Z,19.48
2018-04-22T07:33:20.363Z,19.57
2018-04-22T07:36:43.309Z,19.84
2018-04-22T07:40:07.043Z,19.73
2018-04-22T07:43:30.148Z,19.55
2018-04-22T07:46:53.000Z,19.60
2018-04-22T07:50:15.886Z,19.94
2018-04-22T07:53:38.801Z,19.99
2018-04-22T07:57:01.664Z,20.07
2018-04-22T08:00:25.583Z,20.23
2018-04-22T08:03:49.288Z,20.10
2018-04-22T08:07:12.198Z,20.47
2018-04-22T08:10:35.143Z,20.39
2018-04-22T08:13:58.780Z,20.69
2018-04-22T08:17:23.469Z,20.82
2018-04-22T08:20:46.560Z,20.80
2018-04-22T08:24:09.434Z,20.79
2018-04-22T08:27:33.045Z,20.99
2018-04-22T08:30:56.796Z,21.12
2018-04-22T08:34:21.232Z,21.28
2018-04-22T08:37:44.150Z,21.49
2018-04-22T08:41:07.009Z,21.56
2018-04-22T08:44:29.948Z,21.79
2018-04-22T08:47:53.587Z,21.78
2018-04-22T08:51:16.414Z,22.17
2018-04-22T08:54:39.340Z,22.42
2018-04-22T08:58:02.195Z,22.62
2018-04-22T09:01:26.071Z,22.61
2018-04-22T09:04:50.131Z,22.61
2018-04-22T09:08:12.988Z,22.86
2018-04-22T09:11:35.850Z,22.77
2018-04-22T09:14:59.686Z,23.01
2018-04-22T09:18:22.733Z,23.20
2018-04-22T09:21:45.632Z,23.23
2018-04-22T09:25:08.792Z,23.13
2018-04-22T09:28:33.229Z,23.46
2018-04-22T09:31:56.061Z,23.96
2018-04-22T09:35:19.689Z,24.18
2018-04-22T09:38:42.566Z,23.96
2018-04-22T09:42:06.164Z,24.29
2018-04-22T09:45:29.050Z,24.06
2018-04-22T09:48:52.689Z,24.11
2018-04-22T09:52:15.558Z,24.39
2018-04-22T09:55:39.224Z,24.16
2018-04-22T09:59:02.062Z,24.60
2018-04-22T10:02:31.317Z,24.04
2018-04-22T10:05:54.143Z,24.20
2018-04-22T10:09:17.787Z,24.63
2018-04-22T10:12:41.546Z,24.46
2018-04-22T10:16:04.441Z,24.80
2018-04-22T10:19:28.054Z,25.05
2018-04-22T10:22:50.893Z,25.00
2018-04-22T10:26:13.745Z,25.25
2018-04-22T10:29:36.733Z,25.30
2018-04-22T10:32:59.995Z,25.27
2018-04-22T10:36:22.861Z,25.39
2018-04-22T10:39:45.713Z,25.56
2018-04-22T10:43:09.599Z,25.78
2018-04-22T10:46:32.447Z,25.60
2018-04-22T10:49:55.285Z,25.60
2018-04-22T10:53:18.129Z,25.96
2018-04-22T10:56:40.989Z,26.05
2018-04-22T11:00:03.933Z,26.10
2018-04-22T11:03:27.550Z,26.21
2018-04-22T11:06:50.377Z,26.51
2018-04-22T11:10:15.659Z,26.18
2018-04-22T11:13:39.714Z,26.24
2018-04-22T11:17:02.682Z,26.20
2018-04-22T11:20:25.616Z,26.78
2018-04-22T11:23:50.584Z,26.79
2018-04-22T11:27:13.494Z,26.65
2018-04-22T11:30:36.902Z,27.22
2018-04-22T11:34:01.007Z,27.22
2018-04-22T11:37:25.103Z,27.64
2018-04-22T11:40:47.957Z,27.83
2018-04-22T11:44:10.983Z,27.14
2018-04-22T11:47:34.621Z,27.84
2018-04-22T11:50:58.036Z,27.16
2018-04-22T11:54:21.207Z,27.89
2018-04-22T11:57:44.859Z,27.39
2018-04-22T12:01:08.618Z,27.08
2018-04-22T12:04:31.554Z,27.29
2018-04-22T12:07:54.846Z,27.95
2018-04-22T12:11:18.564Z,27.88
2018-04-22T12:14:41.522Z,27.77
2018-04-22T12:18:04.338Z,28.11
2018-04-22T12:21:28.114Z,28.46
2018-04-22T12:24:51.246Z,28.63
2018-04-22T12:28:14.114Z,28.90
2018-04-22T12:31:37.369Z,28.99
2018-04-22T12:35:00.203Z,27.81
2018-04-22T12:38:23.154Z,28.30
2018-04-22T12:41:46.022Z,27.54
2018-04-22T12:45:09.690Z,28.10
2018-04-22T12:48:34.091Z,27.50
2018-04-22T12:51:56.974Z,27.64
2018-04-22T12:55:20.575Z,27.97
2018-04-22T12:58:43.449Z,27.82
2018-04-22T13:02:06.364Z,28.69
2018-04-22T13:05:29.236Z,28.66
2018-04-22T13:08:52.157Z,28.56
2018-04-22T13:12:15.767Z,28.54
2018-04-22T13:15:38.833Z,28.65
2018-04-22T13:19:01.736Z,28.22
2018-04-22T13:22:24.652Z,28.34
2018-04-22T13:25:50.771Z,27.82
2018-04-22T13:29:14.437Z,27.97
2018-04-22T13:32:37.298Z,27.48
2018-04-22T13:36:00.250Z,28.46
2018-04-22T13:39:23.930Z,27.70
2018-04-22T13:42:49.866Z,27.44
2018-04-22T13:46:13.459Z,28.01
2018-04-22T13:49:42.817Z,28.27
2018-04-22T13:53:05.741Z,28.59
2018-04-22T13:56:30.413Z,28.21
2018-04-22T13:59:54.030Z,28.40
2018-04-22T14:03:17.034Z,28.61
2018-04-22T14:06:39.882Z,28.22
2018-04-22T14:10:02.788Z,28.50
2018-04-22T14:13:25.712Z,28.80
2018-04-22T14:16:48.562Z,28.40
2018-04-22T14:20:11.474Z,28.12
2018-04-22T14:23:34.341Z,28.59
2018-04-22T14:26:57.178Z,28.84
2018-04-22T14:30:20.465Z,29.05
2018-04-22T14:33:53.487Z,28.77
2018-04-22T14:37:16.359Z,28.99
2018-04-22T14:40:39.270Z,29.35
2018-04-22T14:44:14.103Z,29.22
2018-04-22T14:47:37.051Z,28.96
2018-04-22T14:51:00.723Z,29.12
2018-04-22T14:54:23.574Z,28.31
2018-04-22T14:57:46.501Z,29.66
2018-04-22T15:01:09.346Z,29.91
2018-04-22T15:04:35.731Z,30.06
2018-04-22T15:08:03.953Z,30.02
2018-04-22T15:11:26.883Z,30.42
2018-04-22T15:14:50.553Z,30.64
2018-04-22T15:18:13.476Z,31.13
2018-04-22T15:21:36.416Z,31.16
2018-04-22T15:24:59.386Z,31.24
2018-04-22T15:28:22.244Z,29.98
2018-04-22T15:31:45.240Z,29.68
2018-04-22T15:35:08.089Z,29.80
2018-04-22T15:38:30.954Z,30.71
2018-04-22T15:41:53.853Z,30.80
2018-04-22T15:45:16.823Z,30.22
2018-04-22T15:48:40.759Z,30.97
2018-04-22T15:52:04.518Z,31.20
2018-04-22T15:55:29.307Z,30.20
2018-04-22T16:03:09.022Z,29.91
2018-04-22T16:06:31.903Z,29.97
2018-04-22T16:09:55.847Z,31.13
2018-04-22T16:13:18.980Z,30.69
2018-04-22T16:16:41.924Z,31.00
2018-04-22T16:20:05.615Z,31.13
2018-04-22T16:23:28.468Z,31.03
2018-04-22T16:26:51.383Z,30.45
2018-04-22T16:30:14.263Z,30.13
2018-04-22T16:33:37.951Z,29.65
2018-04-22T16:37:00.844Z,29.60
2018-04-22T16:40:23.758Z,30.27
2018-04-22T16:43:47.858Z,29.74
2018-04-22T16:47:10.746Z,29.76
2018-04-22T16:50:34.934Z,29.46
2018-04-22T16:53:57.799Z,29.27
2018-04-22T16:57:20.707Z,29.43
2018-04-22T17:00:43.985Z,29.25
2018-04-22T17:04:06.905Z,28.85
2018-04-22T17:07:29.837Z,28.92
2018-04-22T17:10:52.773Z,28.82
2018-04-22T17:14:15.747Z,28.68
2018-04-22T17:17:38.619Z,28.50
2018-04-22T17:21:01.480Z,28.19
2018-04-22T17:24:25.876Z,27.88
2018-04-22T17:27:49.568Z,27.85
2018-04-22T17:31:12.571Z,27.27
2018-04-22T17:34:36.318Z,27.13
2018-04-22T17:37:59.192Z,26.87
2018-04-22T17:41:22.124Z,26.60
2018-04-22T17:44:45.387Z,26.52
2018-04-22T17:48:08.266Z,26.34
2018-04-22T17:51:32.668Z,26.16
2018-04-22T17:54:55.625Z,25.97
2018-04-22T17:58:18.601Z,25.91
2018-04-22T18:01:41.582Z,25.40
2018-04-22T18:05:04.388Z,25.32
2018-04-22T18:08:28.891Z,25.02
2018-04-22T18:11:51.809Z,24.87
2018-04-22T18:15:14.696Z,24.56
2018-04-22T18:18:38.351Z,24.41
2018-04-22T18:22:01.974Z,24.43
2018-04-22T18:25:25.855Z,24.26
2018-04-22T18:28:49.465Z,23.86
2018-04-22T18:32:12.329Z,23.77
2018-04-22T18:35:35.386Z,23.53
2018-04-22T18:38:58.311Z,23.50
2018-04-22T18:42:21.162Z,23.36
2018-04-22T18:45:44.092Z,23.32
2018-04-22T18:49:07.136Z,23.27
2018-04-22T18:52:29.984Z,23.08
2018-04-22T19:03:47.329Z,22.95
2018-04-22T19:07:15.454Z,22.86
2018-04-22T19:10:38.404Z,23.07
2018-04-22T19:14:01.459Z,22.95
2018-04-22T19:17:24.510Z,22.81
2018-04-22T19:20:47.430Z,22.96
2018-04-22T19:24:10.666Z,22.76
2018-04-22T19:27:33.591Z,23.19
2018-04-22T19:30:56.671Z,23.01
2018-04-22T19:34:21.033Z,23.40
2018-04-22T19:37:44.892Z,23.16
2018-04-22T19:41:07.871Z,22.68
2018-04-22T19:44:31.200Z,22.33
2018-04-22T19:47:54.097Z,22.38
2018-04-22T19:51:17.024Z,22.34
2018-04-22T19:54:40.946Z,22.42
2018-04-22T19:58:03.884Z,22.18
2018-04-22T20:01:26.817Z,22.38
2018-04-22T20:04:50.470Z,22.30
2018-04-22T20:08:14.093Z,22.22
2018-04-22T20:11:37.002Z,22.46
2018-04-22T20:14:59.923Z,22.24
2018-04-22T20:18:24.238Z,22.02
2018-04-22T20:21:47.219Z,21.72
2018-04-22T20:25:10.148Z,21.94
2018-04-22T20:28:35.543Z,21.82
2018-04-22T20:31:58.469Z,21.68
2018-04-22T20:35:22.133Z,21.78
2018-04-22T20:38:46.641Z,21.85
2018-04-22T20:42:10.257Z,21.67
2018-04-22T20:45:33.262Z,21.43
2018-04-22T20:48:56.212Z,21.41
2018-04-22T20:52:19.853Z,21.32
2018-04-22T20:55:43.461Z,21.32
2018-04-22T20:59:06.329Z,21.18
2018-04-22T21:02:29.174Z,21.27
2018-04-22T21:05:52.011Z,21.09
2018-04-22T21:09:14.896Z,21.00
2018-04-22T21:12:38.650Z,20.98
2018-04-22T21:16:01.532Z,20.77
2018-04-22T21:19:25.160Z,20.67
2018-04-22T21:22:48.073Z,20.60
2018-04-22T21:26:11.067Z,20.55
2018-04-22T21:29:33.931Z,20.48
2018-04-22T21:32:57.573Z,20.57
2018-04-22T21:36:20.487Z,20.38
2018-04-22T21:39:44.339Z,20.47
2018-04-22T21:43:07.195Z,20.39
2018-04-22T21:46:30.126Z,20.20
2018-04-22T21:49:53.007Z,20.38
2018-04-22T21:53:16.708Z,20.20
2018-04-22T21:56:40.794Z,20.08
2018-04-22T22:00:03.844Z,20.00
2018-04-22T22:03:26.694Z,19.84
2018-04-22T22:06:49.544Z,19.83
2018-04-22T22:10:12.470Z,19.75
2018-04-22T22:13:35.389Z,20.03
2018-04-22T22:16:58.237Z,19.74
2018-04-22T22:20:21.085Z,19.72
2018-04-22T22:23:43.925Z,19.61
2018-04-22T22:27:06.834Z,19.72
2018-04-22T22:30:29.703Z,19.64
2018-04-22T22:33:52.601Z,19.74
2018-04-22T22:37:15.450Z,19.68
2018-04-22T22:40:38.317Z,19.53
2018-04-22T22:44:01.223Z,19.39
2018-04-22T22:47:24.169Z,19.22
2018-04-22T22:50:47.789Z,19.32
2018-04-22T22:54:10.633Z,19.24
2018-04-22T22:57:33.485Z,19.26
2018-04-22T23:00:57.356Z,19.16
2018-04-22T23:04:20.213Z,19.09
2018-04-22T23:07:43.042Z,19.16
2018-04-22T23:11:05.885Z,19.41
2018-04-22T23:14:28.745Z,19.32
2018-04-22T23:17:51.588Z,18.81
2018-04-22T23:21:14.432Z,18.99
2018-04-22T23:24:37.253Z,18.92
2018-04-22T23:28:00.867Z,18.67
2018-04-22T23:31:23.721Z,18.72
2018-04-22T23:34:46.568Z,18.53
2018-04-22T23:38:09.406Z,18.80
2018-04-22T23:41:32.257Z,18.40
2018-04-22T23:44:55.101Z,18.60
2018-04-22T23:48:17.945Z,18.51
2018-04-22T23:51:40.801Z,18.63
2018-04-22T23:55:03.719Z,18.54
2018-04-22T23:58:26.585Z,18.30
